sensor_id;sensor_type;location;lat;lon;timestamp;temperature;humidity
7496;DHT22;3789;47.064;15.482;2023-09-07T00:00:06;16.10;99.90
7496;DHT22;3789;47.064;15.482;2023-09-07T00:02:42;16.10;99.90
7496;DHT22;3789;47.064;15.482;2023-09-07T00:09:19;16.10;99.90
7496;DHT22;3789;47.064;15.482;2023-09-07T00:11:50;16.10;99.90
7496;DHT22;3789;47.064;15.482;2023-09-07T00:14:31;16.10;99.90
7496;DHT22;3789;47.064;15.482;2023-09-07T00:17:01;16.10;99.90
7496;DHT22;3789;47.064;15.482;2023-09-07T00:19:33;16.10;99.90
7496;DHT22;3789;47.064;15.482;2023-09-07T00:22:10;16.10;99.90
7496;DHT22;3789;47.064;15.482;2023-09-07T00:24:51;16.10;99.90
7496;DHT22;3789;47.064;15.482;2023-09-07T00:27:48;16.10;99.90
7496;DHT22;3789;47.064;15.482;2023-09-07T00:30:30;16.00;99.90
7496;DHT22;3789;47.064;15.482;2023-09-07T00:33:00;15.90;99.90
7496;DHT22;3789;47.064;15.482;2023-09-07T00:35:31;15.90;99.90
7496;DHT22;3789;47.064;15.482;2023-09-07T00:38:12;15.80;99.90
7496;DHT22;3789;47.064;15.482;2023-09-07T00:40:46;15.80;99.90
7496;DHT22;3789;47.064;15.482;2023-09-07T00:43:14;15.80;99.90
7496;DHT22;3789;47.064;15.482;2023-09-07T00:45:43;15.80;99.90
7496;DHT22;3789;47.064;15.482;2023-09-07T00:48:14;15.80;99.90
7496;DHT22;3789;47.064;15.482;2023-09-07T00:50:43;15.80;99.90
7496;DHT22;3789;47.064;15.482;2023-09-07T00:53:13;15.80;99.90
7496;DHT22;3789;47.064;15.482;2023-09-07T00:55:42;15.80;99.90
7496;DHT22;3789;47.064;15.482;2023-09-07T00:58:18;15.90;99.90
7496;DHT22;3789;47.064;15.482;2023-09-07T01:00:48;15.90;99.90
7496;DHT22;3789;47.064;15.482;2023-09-07T01:03:17;15.90;99.90
7496;DHT22;3789;47.064;15.482;2023-09-07T01:08:54;15.70;99.90
7496;DHT22;3789;47.064;15.482;2023-09-07T01:11:34;15.60;99.90
7496;DHT22;3789;47.064;15.482;2023-09-07T01:14:15;15.60;99.90
7496;DHT22;3789;47.064;15.482;2023-09-07T01:16:47;15.60;99.90
7496;DHT22;3789;47.064;15.482;2023-09-07T01:19:19;15.60;99.90
7496;DHT22;3789;47.064;15.482;2023-09-07T01:21:49;15.60;99.90
7496;DHT22;3789;47.064;15.482;2023-09-07T01:24:26;15.50;99.90
7496;DHT22;3789;47.064;15.482;2023-09-07T01:26:56;15.50;99.90
7496;DHT22;3789;47.064;15.482;2023-09-07T01:29:26;15.50;99.90
7496;DHT22;3789;47.064;15.482;2023-09-07T01:32:01;15.50;99.90
7496;DHT22;3789;47.064;15.482;2023-09-07T01:34:29;15.50;99.90
7496;DHT22;3789;47.064;15.482;2023-09-07T01:36:59;15.40;99.90
7496;DHT22;3789;47.064;15.482;2023-09-07T01:39:29;15.30;99.90
7496;DHT22;3789;47.064;15.482;2023-09-07T01:41:59;15.20;99.90
7496;DHT22;3789;47.064;15.482;2023-09-07T01:44:35;15.10;99.90
7496;DHT22;3789;47.064;15.482;2023-09-07T01:47:03;15.00;99.90
7496;DHT22;3789;47.064;15.482;2023-09-07T01:49:34;15.10;99.90
7496;DHT22;3789;47.064;15.482;2023-09-07T01:52:03;15.10;99.90
7496;DHT22;3789;47.064;15.482;2023-09-07T01:54:34;15.10;99.90
7496;DHT22;3789;47.064;15.482;2023-09-07T01:57:13;15.10;99.90
7496;DHT22;3789;47.064;15.482;2023-09-07T01:59:50;14.80;99.90
7496;DHT22;3789;47.064;15.482;2023-09-07T02:02:20;14.70;99.90
7496;DHT22;3789;47.064;15.482;2023-09-07T02:04:50;14.60;99.90
7496;DHT22;3789;47.064;15.482;2023-09-07T02:07:20;14.50;99.90
7496;DHT22;3789;47.064;15.482;2023-09-07T02:09:50;14.50;99.90
7496;DHT22;3789;47.064;15.482;2023-09-07T02:12:20;14.50;99.90
7496;DHT22;3789;47.064;15.482;2023-09-07T02:15:00;14.50;99.90
7496;DHT22;3789;47.064;15.482;2023-09-07T02:17:30;14.60;99.90
7496;DHT22;3789;47.064;15.482;2023-09-07T02:20:02;14.70;99.90
7496;DHT22;3789;47.064;15.482;2023-09-07T02:22:39;14.70;99.90
7496;DHT22;3789;47.064;15.482;2023-09-07T02:25:08;14.80;99.90
7496;DHT22;3789;47.064;15.482;2023-09-07T02:27:42;14.80;99.90
7496;DHT22;3789;47.064;15.482;2023-09-07T02:30:11;14.70;99.90
7496;DHT22;3789;47.064;15.482;2023-09-07T02:32:43;14.70;99.90
7496;DHT22;3789;47.064;15.482;2023-09-07T02:35:11;14.70;99.90
7496;DHT22;3789;47.064;15.482;2023-09-07T02:37:45;14.80;99.90
7496;DHT22;3789;47.064;15.482;2023-09-07T02:40:13;14.80;99.90
7496;DHT22;3789;47.064;15.482;2023-09-07T02:42:46;14.80;99.90
7496;DHT22;3789;47.064;15.482;2023-09-07T02:45:14;14.70;99.90
7496;DHT22;3789;47.064;15.482;2023-09-07T02:47:45;14.60;99.90
7496;DHT22;3789;47.064;15.482;2023-09-07T02:50:16;14.60;99.90
7496;DHT22;3789;47.064;15.482;2023-09-07T02:52:50;14.40;99.90
7496;DHT22;3789;47.064;15.482;2023-09-07T02:55:27;14.40;99.90
7496;DHT22;3789;47.064;15.482;2023-09-07T02:57:57;14.30;99.90
7496;DHT22;3789;47.064;15.482;2023-09-07T03:00:26;14.20;99.90
7496;DHT22;3789;47.064;15.482;2023-09-07T03:02:54;14.30;99.90
7496;DHT22;3789;47.064;15.482;2023-09-07T03:05:37;14.30;99.90
7496;DHT22;3789;47.064;15.482;2023-09-07T03:08:08;14.30;99.90
7496;DHT22;3789;47.064;15.482;2023-09-07T03:10:38;14.30;99.90
7496;DHT22;3789;47.064;15.482;2023-09-07T03:13:09;14.30;99.90
7496;DHT22;3789;47.064;15.482;2023-09-07T03:15:41;14.30;99.90
7496;DHT22;3789;47.064;15.482;2023-09-07T03:18:16;14.50;99.90
7496;DHT22;3789;47.064;15.482;2023-09-07T03:20:45;14.50;99.90
7496;DHT22;3789;47.064;15.482;2023-09-07T03:23:14;14.40;99.90
7496;DHT22;3789;47.064;15.482;2023-09-07T03:25:45;14.50;99.90
7496;DHT22;3789;47.064;15.482;2023-09-07T03:28:13;14.60;99.90
7496;DHT22;3789;47.064;15.482;2023-09-07T03:30:42;14.50;99.90
7496;DHT22;3789;47.064;15.482;2023-09-07T03:33:11;14.50;99.90
7496;DHT22;3789;47.064;15.482;2023-09-07T03:35:42;14.60;99.90
7496;DHT22;3789;47.064;15.482;2023-09-07T03:38:11;14.50;99.90
7496;DHT22;3789;47.064;15.482;2023-09-07T03:40:42;14.40;99.90
7496;DHT22;3789;47.064;15.482;2023-09-07T03:43:14;14.40;99.90
7496;DHT22;3789;47.064;15.482;2023-09-07T03:45:44;14.40;99.90
7496;DHT22;3789;47.064;15.482;2023-09-07T03:48:20;14.30;99.90
7496;DHT22;3789;47.064;15.482;2023-09-07T03:51:00;14.30;99.90
7496;DHT22;3789;47.064;15.482;2023-09-07T03:53:31;14.20;99.90
7496;DHT22;3789;47.064;15.482;2023-09-07T03:56:03;14.20;99.90
7496;DHT22;3789;47.064;15.482;2023-09-07T03:58:40;14.10;99.90
7496;DHT22;3789;47.064;15.482;2023-09-07T04:01:16;14.20;99.90
7496;DHT22;3789;47.064;15.482;2023-09-07T04:03:50;14.20;99.90
7496;DHT22;3789;47.064;15.482;2023-09-07T04:06:17;14.20;99.90
7496;DHT22;3789;47.064;15.482;2023-09-07T04:08:48;14.20;99.90
7496;DHT22;3789;47.064;15.482;2023-09-07T04:11:25;14.30;99.90
7496;DHT22;3789;47.064;15.482;2023-09-07T04:13:53;14.30;99.90
7496;DHT22;3789;47.064;15.482;2023-09-07T04:16:22;14.30;99.90
7496;DHT22;3789;47.064;15.482;2023-09-07T04:18:56;14.40;99.90
7496;DHT22;3789;47.064;15.482;2023-09-07T04:21:27;14.30;99.90
7496;DHT22;3789;47.064;15.482;2023-09-07T04:23:55;14.30;99.90
7496;DHT22;3789;47.064;15.482;2023-09-07T04:26:24;14.30;99.90
7496;DHT22;3789;47.064;15.482;2023-09-07T04:29:02;14.30;99.90
7496;DHT22;3789;47.064;15.482;2023-09-07T04:31:45;14.30;99.90
7496;DHT22;3789;47.064;15.482;2023-09-07T04:34:15;14.40;99.90
7496;DHT22;3789;47.064;15.482;2023-09-07T04:36:46;14.40;99.90
7496;DHT22;3789;47.064;15.482;2023-09-07T04:39:15;14.40;99.90
7496;DHT22;3789;47.064;15.482;2023-09-07T04:41:44;14.40;99.90
7496;DHT22;3789;47.064;15.482;2023-09-07T04:44:26;14.50;99.90
7496;DHT22;3789;47.064;15.482;2023-09-07T04:46:57;14.80;99.90
7496;DHT22;3789;47.064;15.482;2023-09-07T04:49:31;15.40;99.90
7496;DHT22;3789;47.064;15.482;2023-09-07T04:52:01;16.10;99.90
7496;DHT22;3789;47.064;15.482;2023-09-07T04:54:29;16.60;99.90
7496;DHT22;3789;47.064;15.482;2023-09-07T04:57:00;17.20;99.90
7496;DHT22;3789;47.064;15.482;2023-09-07T04:59:37;17.70;99.90
7496;DHT22;3789;47.064;15.482;2023-09-07T05:02:05;17.50;99.90
7496;DHT22;3789;47.064;15.482;2023-09-07T05:04:38;16.60;99.90
7496;DHT22;3789;47.064;15.482;2023-09-07T05:07:08;16.80;99.90
7496;DHT22;3789;47.064;15.482;2023-09-07T05:09:44;17.40;99.90
7496;DHT22;3789;47.064;15.482;2023-09-07T05:12:12;18.10;99.90
7496;DHT22;3789;47.064;15.482;2023-09-07T05:14:42;18.20;99.90
7496;DHT22;3789;47.064;15.482;2023-09-07T05:17:24;17.80;99.90
7496;DHT22;3789;47.064;15.482;2023-09-07T05:19:55;18.30;99.90
7496;DHT22;3789;47.064;15.482;2023-09-07T05:22:28;18.50;99.90
7496;DHT22;3789;47.064;15.482;2023-09-07T05:24:59;19.50;99.90
7496;DHT22;3789;47.064;15.482;2023-09-07T05:27:38;20.30;99.90
7496;DHT22;3789;47.064;15.482;2023-09-07T05:30:14;19.80;99.90
7496;DHT22;3789;47.064;15.482;2023-09-07T05:32:51;20.10;99.90
7496;DHT22;3789;47.064;15.482;2023-09-07T05:35:22;19.60;99.90
7496;DHT22;3789;47.064;15.482;2023-09-07T05:37:56;19.60;99.90
7496;DHT22;3789;47.064;15.482;2023-09-07T05:40:25;21.00;99.90
7496;DHT22;3789;47.064;15.482;2023-09-07T05:42:56;21.50;99.90
7496;DHT22;3789;47.064;15.482;2023-09-07T05:45:26;22.50;99.90
7496;DHT22;3789;47.064;15.482;2023-09-07T05:47:57;23.50;99.90
7496;DHT22;3789;47.064;15.482;2023-09-07T05:50:27;23.70;99.90
7496;DHT22;3789;47.064;15.482;2023-09-07T05:53:01;25.00;99.90
7496;DHT22;3789;47.064;15.482;2023-09-07T05:55:31;26.00;99.90
7496;DHT22;3789;47.064;15.482;2023-09-07T05:58:03;26.30;99.90
7496;DHT22;3789;47.064;15.482;2023-09-07T06:00:34;26.80;99.90
7496;DHT22;3789;47.064;15.482;2023-09-07T06:03:07;27.70;99.90
7496;DHT22;3789;47.064;15.482;2023-09-07T06:05:44;27.70;99.90
7496;DHT22;3789;47.064;15.482;2023-09-07T06:08:15;27.50;99.90
7496;DHT22;3789;47.064;15.482;2023-09-07T06:10:46;27.90;99.90
7496;DHT22;3789;47.064;15.482;2023-09-07T06:13:14;27.90;99.90
7496;DHT22;3789;47.064;15.482;2023-09-07T06:15:44;29.00;99.20
7496;DHT22;3789;47.064;15.482;2023-09-07T06:18:16;30.00;98.30
7496;DHT22;3789;47.064;15.482;2023-09-07T06:20:45;30.10;96.90
7496;DHT22;3789;47.064;15.482;2023-09-07T06:23:13;30.40;96.50
7496;DHT22;3789;47.064;15.482;2023-09-07T06:25:41;30.50;96.40
7496;DHT22;3789;47.064;15.482;2023-09-07T06:28:12;30.70;95.50
7496;DHT22;3789;47.064;15.482;2023-09-07T06:30:50;30.70;95.50
7496;DHT22;3789;47.064;15.482;2023-09-07T06:33:23;30.90;95.50
7496;DHT22;3789;47.064;15.482;2023-09-07T06:35:53;30.90;95.00
7496;DHT22;3789;47.064;15.482;2023-09-07T06:38:24;30.60;95.20
7496;DHT22;3789;47.064;15.482;2023-09-07T06:40:58;30.10;95.60
7496;DHT22;3789;47.064;15.482;2023-09-07T06:43:50;30.30;95.90
7496;DHT22;3789;47.064;15.482;2023-09-07T06:46:30;30.90;95.00
7496;DHT22;3789;47.064;15.482;2023-09-07T06:49:08;31.40;94.40
7496;DHT22;3789;47.064;15.482;2023-09-07T06:51:39;32.10;93.80
7496;DHT22;3789;47.064;15.482;2023-09-07T06:54:16;32.40;93.70
7496;DHT22;3789;47.064;15.482;2023-09-07T06:56:44;33.10;93.00
7496;DHT22;3789;47.064;15.482;2023-09-07T06:59:14;33.40;92.40
7496;DHT22;3789;47.064;15.482;2023-09-07T07:01:50;33.00;92.30
7496;DHT22;3789;47.064;15.482;2023-09-07T07:04:23;33.10;92.60
7496;DHT22;3789;47.064;15.482;2023-09-07T07:06:52;33.50;92.30
7496;DHT22;3789;47.064;15.482;2023-09-07T07:09:22;33.90;91.80
7496;DHT22;3789;47.064;15.482;2023-09-07T07:11:52;33.90;90.90
7496;DHT22;3789;47.064;15.482;2023-09-07T07:14:30;33.30;91.30
7496;DHT22;3789;47.064;15.482;2023-09-07T07:17:01;33.60;91.20
7496;DHT22;3789;47.064;15.482;2023-09-07T07:19:32;33.30;91.40
7496;DHT22;3789;47.064;15.482;2023-09-07T07:22:03;32.70;91.80
7496;DHT22;3789;47.064;15.482;2023-09-07T07:24:32;32.90;91.70
7496;DHT22;3789;47.064;15.482;2023-09-07T07:27:01;33.50;91.00
7496;DHT22;3789;47.064;15.482;2023-09-07T07:29:30;33.60;90.90
7496;DHT22;3789;47.064;15.482;2023-09-07T07:32:02;34.50;91.10
7496;DHT22;3789;47.064;15.482;2023-09-07T07:34:32;35.40;88.90
7496;DHT22;3789;47.064;15.482;2023-09-07T07:37:02;36.00;88.10
7496;DHT22;3789;47.064;15.482;2023-09-07T07:39:39;36.00;88.10
7496;DHT22;3789;47.064;15.482;2023-09-07T07:42:08;35.90;86.70
7496;DHT22;3789;47.064;15.482;2023-09-07T07:44:38;35.30;85.80
7496;DHT22;3789;47.064;15.482;2023-09-07T07:47:06;35.00;86.50
7496;DHT22;3789;47.064;15.482;2023-09-07T07:49:35;34.60;86.30
7496;DHT22;3789;47.064;15.482;2023-09-07T07:52:06;34.50;86.70
7496;DHT22;3789;47.064;15.482;2023-09-07T07:54:34;33.90;88.20
7496;DHT22;3789;47.064;15.482;2023-09-07T07:57:02;34.10;88.30
7496;DHT22;3789;47.064;15.482;2023-09-07T07:59:33;34.20;88.30
7496;DHT22;3789;47.064;15.482;2023-09-07T08:02:02;33.80;87.60
7496;DHT22;3789;47.064;15.482;2023-09-07T08:04:36;32.80;90.10
7496;DHT22;3789;47.064;15.482;2023-09-07T08:07:04;31.90;91.10
7496;DHT22;3789;47.064;15.482;2023-09-07T08:09:38;30.80;91.30
7496;DHT22;3789;47.064;15.482;2023-09-07T08:12:15;29.70;92.40
7496;DHT22;3789;47.064;15.482;2023-09-07T08:14:44;28.80;95.20
7496;DHT22;3789;47.064;15.482;2023-09-07T08:17:13;27.90;96.10
7496;DHT22;3789;47.064;15.482;2023-09-07T08:19:44;27.30;96.40
7496;DHT22;3789;47.064;15.482;2023-09-07T08:22:18;26.60;98.80
7496;DHT22;3789;47.064;15.482;2023-09-07T08:24:59;25.90;97.80
7496;DHT22;3789;47.064;15.482;2023-09-07T08:27:27;25.30;99.50
7496;DHT22;3789;47.064;15.482;2023-09-07T08:29:58;24.70;99.90
7496;DHT22;3789;47.064;15.482;2023-09-07T08:32:26;24.50;99.90
7496;DHT22;3789;47.064;15.482;2023-09-07T08:35:01;24.10;99.90
7496;DHT22;3789;47.064;15.482;2023-09-07T08:37:38;23.80;99.90
7496;DHT22;3789;47.064;15.482;2023-09-07T08:40:17;23.50;99.90
7496;DHT22;3789;47.064;15.482;2023-09-07T08:43:01;23.50;99.90
7496;DHT22;3789;47.064;15.482;2023-09-07T08:45:48;23.80;99.90
7496;DHT22;3789;47.064;15.482;2023-09-07T08:48:19;23.70;99.90
7496;DHT22;3789;47.064;15.482;2023-09-07T08:50:52;23.40;99.90
7496;DHT22;3789;47.064;15.482;2023-09-07T08:53:30;23.60;99.90
7496;DHT22;3789;47.064;15.482;2023-09-07T08:56:03;23.90;99.90
7496;DHT22;3789;47.064;15.482;2023-09-07T08:58:33;23.90;99.90
7496;DHT22;3789;47.064;15.482;2023-09-07T09:01:02;23.80;99.90
7496;DHT22;3789;47.064;15.482;2023-09-07T09:03:38;23.90;99.90
7496;DHT22;3789;47.064;15.482;2023-09-07T09:06:11;24.00;99.90
7496;DHT22;3789;47.064;15.482;2023-09-07T09:08:46;23.60;99.90
7496;DHT22;3789;47.064;15.482;2023-09-07T09:11:39;23.70;99.90
7496;DHT22;3789;47.064;15.482;2023-09-07T09:14:07;23.90;99.90
7496;DHT22;3789;47.064;15.482;2023-09-07T09:16:35;24.20;99.90
7496;DHT22;3789;47.064;15.482;2023-09-07T09:19:33;24.30;99.60
7496;DHT22;3789;47.064;15.482;2023-09-07T09:22:05;24.10;99.90
7496;DHT22;3789;47.064;15.482;2023-09-07T09:24:34;24.10;99.90
7496;DHT22;3789;47.064;15.482;2023-09-07T09:27:05;23.80;99.90
7496;DHT22;3789;47.064;15.482;2023-09-07T09:29:56;23.80;99.90
7496;DHT22;3789;47.064;15.482;2023-09-07T09:32:24;24.00;99.90
7496;DHT22;3789;47.064;15.482;2023-09-07T09:34:56;24.20;99.90
7496;DHT22;3789;47.064;15.482;2023-09-07T09:37:27;24.20;99.90
7496;DHT22;3789;47.064;15.482;2023-09-07T09:39:58;24.40;99.90
7496;DHT22;3789;47.064;15.482;2023-09-07T09:42:30;24.70;99.90
7496;DHT22;3789;47.064;15.482;2023-09-07T09:45:07;25.00;99.90
7496;DHT22;3789;47.064;15.482;2023-09-07T09:47:41;25.00;99.90
7496;DHT22;3789;47.064;15.482;2023-09-07T09:50:10;24.90;99.40
7496;DHT22;3789;47.064;15.482;2023-09-07T09:52:39;25.00;98.80
7496;DHT22;3789;47.064;15.482;2023-09-07T09:55:17;24.90;98.80
7496;DHT22;3789;47.064;15.482;2023-09-07T09:57:53;25.00;97.40
7496;DHT22;3789;47.064;15.482;2023-09-07T10:00:28;25.10;99.70
7496;DHT22;3789;47.064;15.482;2023-09-07T10:03:34;24.60;98.60
7496;DHT22;3789;47.064;15.482;2023-09-07T10:06:32;24.30;98.50
7496;DHT22;3789;47.064;15.482;2023-09-07T10:09:16;24.10;98.90
7496;DHT22;3789;47.064;15.482;2023-09-07T10:11:54;24.10;97.90
7496;DHT22;3789;47.064;15.482;2023-09-07T10:14:23;24.00;99.70
7496;DHT22;3789;47.064;15.482;2023-09-07T10:16:54;24.20;99.90
7496;DHT22;3789;47.064;15.482;2023-09-07T10:19:31;24.20;99.90
7496;DHT22;3789;47.064;15.482;2023-09-07T10:22:07;24.50;99.60
7496;DHT22;3789;47.064;15.482;2023-09-07T10:24:34;24.70;99.90
7496;DHT22;3789;47.064;15.482;2023-09-07T10:27:09;24.90;99.50
7496;DHT22;3789;47.064;15.482;2023-09-07T10:29:46;25.00;97.20
7496;DHT22;3789;47.064;15.482;2023-09-07T10:32:26;24.90;98.00
7496;DHT22;3789;47.064;15.482;2023-09-07T10:34:54;24.20;98.20
7496;DHT22;3789;47.064;15.482;2023-09-07T10:37:30;24.10;99.90
7496;DHT22;3789;47.064;15.482;2023-09-07T10:39:59;24.10;98.70
7496;DHT22;3789;47.064;15.482;2023-09-07T10:42:27;24.20;98.10
7496;DHT22;3789;47.064;15.482;2023-09-07T10:45:16;24.30;98.50
7496;DHT22;3789;47.064;15.482;2023-09-07T10:47:47;24.50;98.40
7496;DHT22;3789;47.064;15.482;2023-09-07T10:50:15;24.50;98.60
7496;DHT22;3789;47.064;15.482;2023-09-07T10:52:48;24.60;98.50
7496;DHT22;3789;47.064;15.482;2023-09-07T10:55:19;24.70;99.90
7496;DHT22;3789;47.064;15.482;2023-09-07T10:57:51;24.70;96.70
7496;DHT22;3789;47.064;15.482;2023-09-07T11:00:20;24.50;96.80
7496;DHT22;3789;47.064;15.482;2023-09-07T11:02:51;24.50;97.50
7496;DHT22;3789;47.064;15.482;2023-09-07T11:05:22;24.50;97.50
7496;DHT22;3789;47.064;15.482;2023-09-07T11:07:51;24.50;98.70
7496;DHT22;3789;47.064;15.482;2023-09-07T11:10:22;24.70;99.90
7496;DHT22;3789;47.064;15.482;2023-09-07T11:12:51;24.80;97.50
7496;DHT22;3789;47.064;15.482;2023-09-07T11:15:20;24.90;99.20
7496;DHT22;3789;47.064;15.482;2023-09-07T11:17:51;24.90;98.00
7496;DHT22;3789;47.064;15.482;2023-09-07T11:20:23;24.80;97.10
7496;DHT22;3789;47.064;15.482;2023-09-07T11:22:53;24.80;99.40
7496;DHT22;3789;47.064;15.482;2023-09-07T11:25:41;24.90;97.80
7496;DHT22;3789;47.064;15.482;2023-09-07T11:28:10;25.00;99.50
7496;DHT22;3789;47.064;15.482;2023-09-07T11:30:55;25.10;98.50
7496;DHT22;3789;47.064;15.482;2023-09-07T11:33:25;24.90;97.90
7496;DHT22;3789;47.064;15.482;2023-09-07T11:36:03;24.60;96.60
7496;DHT22;3789;47.064;15.482;2023-09-07T11:38:36;24.40;97.10
7496;DHT22;3789;47.064;15.482;2023-09-07T11:41:06;24.30;97.80
7496;DHT22;3789;47.064;15.482;2023-09-07T11:43:36;24.30;98.10
7496;DHT22;3789;47.064;15.482;2023-09-07T11:46:09;24.40;98.00
7496;DHT22;3789;47.064;15.482;2023-09-07T11:48:39;24.70;99.60
7496;DHT22;3789;47.064;15.482;2023-09-07T11:51:08;24.90;98.60
7496;DHT22;3789;47.064;15.482;2023-09-07T11:53:38;25.00;97.60
7496;DHT22;3789;47.064;15.482;2023-09-07T11:56:08;25.00;98.10
7496;DHT22;3789;47.064;15.482;2023-09-07T11:58:39;25.10;97.50
7496;DHT22;3789;47.064;15.482;2023-09-07T12:01:16;25.20;98.10
7496;DHT22;3789;47.064;15.482;2023-09-07T12:03:45;25.20;97.60
7496;DHT22;3789;47.064;15.482;2023-09-07T12:06:15;25.30;97.70
7496;DHT22;3789;47.064;15.482;2023-09-07T12:09:00;25.20;98.60
7496;DHT22;3789;47.064;15.482;2023-09-07T12:11:35;25.20;97.30
7496;DHT22;3789;47.064;15.482;2023-09-07T12:14:06;25.10;99.10
7496;DHT22;3789;47.064;15.482;2023-09-07T12:16:43;24.90;96.70
7496;DHT22;3789;47.064;15.482;2023-09-07T12:19:12;25.10;97.60
7496;DHT22;3789;47.064;15.482;2023-09-07T12:21:41;24.90;96.40
7496;DHT22;3789;47.064;15.482;2023-09-07T12:24:10;24.90;97.70
7496;DHT22;3789;47.064;15.482;2023-09-07T12:26:39;24.90;97.60
7496;DHT22;3789;47.064;15.482;2023-09-07T12:29:16;24.90;96.60
7496;DHT22;3789;47.064;15.482;2023-09-07T12:31:46;24.70;96.00
7496;DHT22;3789;47.064;15.482;2023-09-07T12:34:14;24.60;97.80
7496;DHT22;3789;47.064;15.482;2023-09-07T12:36:46;24.60;97.30
7496;DHT22;3789;47.064;15.482;2023-09-07T12:39:17;24.70;97.50
7496;DHT22;3789;47.064;15.482;2023-09-07T12:41:46;24.80;96.90
7496;DHT22;3789;47.064;15.482;2023-09-07T12:44:15;24.90;98.60
7496;DHT22;3789;47.064;15.482;2023-09-07T12:46:48;25.10;98.20
7496;DHT22;3789;47.064;15.482;2023-09-07T12:49:19;25.10;96.40
7496;DHT22;3789;47.064;15.482;2023-09-07T12:51:48;25.00;99.00
7496;DHT22;3789;47.064;15.482;2023-09-07T12:54:17;25.00;97.10
7496;DHT22;3789;47.064;15.482;2023-09-07T12:56:47;24.90;96.70
7496;DHT22;3789;47.064;15.482;2023-09-07T12:59:19;24.50;97.00
7496;DHT22;3789;47.064;15.482;2023-09-07T13:01:47;24.30;97.00
7496;DHT22;3789;47.064;15.482;2023-09-07T13:04:18;24.00;95.50
7496;DHT22;3789;47.064;15.482;2023-09-07T13:06:46;24.10;97.40
7496;DHT22;3789;47.064;15.482;2023-09-07T13:09:23;23.90;97.30
7496;DHT22;3789;47.064;15.482;2023-09-07T13:11:54;23.80;97.40
7496;DHT22;3789;47.064;15.482;2023-09-07T13:14:23;24.00;98.80
7496;DHT22;3789;47.064;15.482;2023-09-07T13:17:01;23.90;98.20
7496;DHT22;3789;47.064;15.482;2023-09-07T13:19:29;24.00;97.00
7496;DHT22;3789;47.064;15.482;2023-09-07T13:21:58;24.00;97.50
7496;DHT22;3789;47.064;15.482;2023-09-07T13:24:33;24.00;96.20
7496;DHT22;3789;47.064;15.482;2023-09-07T13:27:00;23.90;96.70
7496;DHT22;3789;47.064;15.482;2023-09-07T13:29:40;24.00;95.90
7496;DHT22;3789;47.064;15.482;2023-09-07T13:32:08;24.10;97.90
7496;DHT22;3789;47.064;15.482;2023-09-07T13:34:36;24.30;97.30
7496;DHT22;3789;47.064;15.482;2023-09-07T13:37:07;24.20;95.70
7496;DHT22;3789;47.064;15.482;2023-09-07T13:39:35;24.10;95.50
7496;DHT22;3789;47.064;15.482;2023-09-07T13:42:05;23.90;94.90
7496;DHT22;3789;47.064;15.482;2023-09-07T13:44:32;24.10;97.70
7496;DHT22;3789;47.064;15.482;2023-09-07T13:47:04;24.30;97.20
7496;DHT22;3789;47.064;15.482;2023-09-07T13:49:35;24.30;95.30
7496;DHT22;3789;47.064;15.482;2023-09-07T13:52:06;24.30;96.00
7496;DHT22;3789;47.064;15.482;2023-09-07T13:54:33;24.20;97.20
7496;DHT22;3789;47.064;15.482;2023-09-07T13:57:00;24.30;98.00
7496;DHT22;3789;47.064;15.482;2023-09-07T13:59:33;24.40;97.40
7496;DHT22;3789;47.064;15.482;2023-09-07T14:02:11;24.50;98.10
7496;DHT22;3789;47.064;15.482;2023-09-07T14:04:44;24.70;96.90
7496;DHT22;3789;47.064;15.482;2023-09-07T14:07:13;24.80;97.50
7496;DHT22;3789;47.064;15.482;2023-09-07T14:09:55;24.90;96.90
7496;DHT22;3789;47.064;15.482;2023-09-07T14:12:24;25.00;97.10
7496;DHT22;3789;47.064;15.482;2023-09-07T14:14:54;24.90;96.00
7496;DHT22;3789;47.064;15.482;2023-09-07T14:17:23;24.50;95.50
7496;DHT22;3789;47.064;15.482;2023-09-07T14:19:52;24.30;95.00
7496;DHT22;3789;47.064;15.482;2023-09-07T14:22:23;24.20;94.50
7496;DHT22;3789;47.064;15.482;2023-09-07T14:24:51;24.10;95.00
7496;DHT22;3789;47.064;15.482;2023-09-07T14:27:18;24.10;95.00
7496;DHT22;3789;47.064;15.482;2023-09-07T14:29:47;24.10;95.50
7496;DHT22;3789;47.064;15.482;2023-09-07T14:32:24;24.20;96.20
7496;DHT22;3789;47.064;15.482;2023-09-07T14:34:53;24.30;95.60
7496;DHT22;3789;47.064;15.482;2023-09-07T14:37:31;24.30;95.40
7496;DHT22;3789;47.064;15.482;2023-09-07T14:40:01;24.50;96.40
7496;DHT22;3789;47.064;15.482;2023-09-07T14:42:38;24.70;94.90
7496;DHT22;3789;47.064;15.482;2023-09-07T14:45:06;24.70;95.90
7496;DHT22;3789;47.064;15.482;2023-09-07T14:47:35;24.60;95.80
7496;DHT22;3789;47.064;15.482;2023-09-07T14:50:12;24.70;96.20
7496;DHT22;3789;47.064;15.482;2023-09-07T14:52:41;24.70;96.10
7496;DHT22;3789;47.064;15.482;2023-09-07T14:55:17;24.60;95.10
7496;DHT22;3789;47.064;15.482;2023-09-07T14:57:45;24.50;95.70
7496;DHT22;3789;47.064;15.482;2023-09-07T15:00:15;24.50;95.40
7496;DHT22;3789;47.064;15.482;2023-09-07T15:02:47;24.70;96.00
7496;DHT22;3789;47.064;15.482;2023-09-07T15:05:20;24.80;95.40
7496;DHT22;3789;47.064;15.482;2023-09-07T15:07:48;24.80;96.10
7496;DHT22;3789;47.064;15.482;2023-09-07T15:10:16;24.80;95.50
7496;DHT22;3789;47.064;15.482;2023-09-07T15:12:47;24.80;95.90
7496;DHT22;3789;47.064;15.482;2023-09-07T15:15:18;24.70;95.80
7496;DHT22;3789;47.064;15.482;2023-09-07T15:17:55;24.50;95.20
7496;DHT22;3789;47.064;15.482;2023-09-07T15:20:25;24.40;96.80
7496;DHT22;3789;47.064;15.482;2023-09-07T15:22:54;24.30;96.60
7496;DHT22;3789;47.064;15.482;2023-09-07T15:25:24;24.40;95.50
7496;DHT22;3789;47.064;15.482;2023-09-07T15:27:54;24.40;96.00
7496;DHT22;3789;47.064;15.482;2023-09-07T15:30:25;24.60;95.50
7496;DHT22;3789;47.064;15.482;2023-09-07T15:32:54;24.70;95.20
7496;DHT22;3789;47.064;15.482;2023-09-07T15:35:22;24.70;95.50
7496;DHT22;3789;47.064;15.482;2023-09-07T15:37:55;25.00;95.70
7496;DHT22;3789;47.064;15.482;2023-09-07T15:40:25;25.00;95.40
7496;DHT22;3789;47.064;15.482;2023-09-07T15:42:55;25.10;95.30
7496;DHT22;3789;47.064;15.482;2023-09-07T15:45:23;25.10;95.60
7496;DHT22;3789;47.064;15.482;2023-09-07T15:47:55;25.00;96.10
7496;DHT22;3789;47.064;15.482;2023-09-07T15:50:27;24.90;95.20
7496;DHT22;3789;47.064;15.482;2023-09-07T15:52:57;24.80;96.00
7496;DHT22;3789;47.064;15.482;2023-09-07T15:55:27;24.60;96.60
7496;DHT22;3789;47.064;15.482;2023-09-07T15:57:56;24.50;97.20
7496;DHT22;3789;47.064;15.482;2023-09-07T16:00:34;24.50;98.30
7496;DHT22;3789;47.064;15.482;2023-09-07T16:03:03;24.40;97.00
7496;DHT22;3789;47.064;15.482;2023-09-07T16:05:35;24.30;98.10
7496;DHT22;3789;47.064;15.482;2023-09-07T16:08:05;24.30;97.40
7496;DHT22;3789;47.064;15.482;2023-09-07T16:10:36;24.20;97.30
7496;DHT22;3789;47.064;15.482;2023-09-07T16:13:09;24.10;97.50
7496;DHT22;3789;47.064;15.482;2023-09-07T16:15:38;24.10;97.30
7496;DHT22;3789;47.064;15.482;2023-09-07T16:18:17;24.00;97.00
7496;DHT22;3789;47.064;15.482;2023-09-07T16:21:01;23.90;96.90
7496;DHT22;3789;47.064;15.482;2023-09-07T16:23:37;24.00;97.00